Hauptseite
METAR-TAF:

METAR-TAF

Flughäfen :

RAF Wittering

Wittering, England

Breite: 52-37N, Länge: 000-28W, Höhe: 84 m

Beobachtung

Neuester Wetterbericht von vor 43 Minuten, um 23:50 UTC
Wind 6 kt aus Süd
Temperatur 7°C
Luftfeuchtigkeit 93%
Luftdruck 1019 hPa
Sichtweite: 8000 m
feuchter Dunst

METAR: EGXT 142350Z AUTO 19006KT 8000 BR BKN008/// 07/06 Q1019

Zeit: 00:33 (00:33 UTC)

Prognose

Neuester Wetterbericht von vor 10 Stunden und 51 Minuten, um 13:42 UTC
Gültige Prognose vom 14 um 15 UTC bis 14 um 18 UTC
Wind 15 kt aus Süd
Sichtweite 10 km oder mehr
Leicht bewölkt in der Höhe von 1700 ft
Wahrscheinlichkeit 40% :
Zeitweise
vom 14 um 15 UTC bis 14 um 18 UTC
Aufgelockert bewölkt in der Höhe von 1800 ft

TAF: EGXT 141342Z 1415/1418 19015KT 9999 FEW017 PROB40 TEMPO 1415/1418 SCT018

Wetterbeobachtungen und Prognosen von mehr als 4000 Flughäfen (METAR und TAF Bericht).

Die verfügbaren Stationen werden durch gelbe und rote Markierungen auf der Karte dargestellt.

Führen Sie die Maus auf sie, um den Namen der Station zu sehen.

Darauf klicken, um die Beobachtung von Wetterbeobachtungen und Prognosen zu sehen.

Um die Karte zu ändern : klicken Sie auf den grünen Tasten mit einem schwarzen Kreuz Zum Vergrößern, auf den grünen Button mit einem Gedankenstrich zu verkleinern, oder auf die grünen Pfeile für benachbarte Karten.


METAR-TAF: